sensor_id;sensor_type;location;lat;lon;timestamp;temperature;humidity
76537;DHT22;65381;51.254;15.592;2023-11-22T00:02:00;-0.60;96.90
76537;DHT22;65381;51.254;15.592;2023-11-22T00:04:29;-0.60;97.00
76537;DHT22;65381;51.254;15.592;2023-11-22T00:06:57;-0.60;97.10
76537;DHT22;65381;51.254;15.592;2023-11-22T00:09:25;-0.60;97.00
76537;DHT22;65381;51.254;15.592;2023-11-22T00:11:54;-0.60;96.90
76537;DHT22;65381;51.254;15.592;2023-11-22T00:14:22;-0.60;97.00
76537;DHT22;65381;51.254;15.592;2023-11-22T00:16:50;-0.70;97.00
76537;DHT22;65381;51.254;15.592;2023-11-22T00:19:19;-0.70;97.00
76537;DHT22;65381;51.254;15.592;2023-11-22T00:21:49;-0.70;97.10
76537;DHT22;65381;51.254;15.592;2023-11-22T00:24:18;-0.70;97.10
76537;DHT22;65381;51.254;15.592;2023-11-22T00:26:46;-0.70;97.10
76537;DHT22;65381;51.254;15.592;2023-11-22T00:29:14;-0.70;97.00
76537;DHT22;65381;51.254;15.592;2023-11-22T00:31:43;-0.70;97.00
76537;DHT22;65381;51.254;15.592;2023-11-22T00:34:13;-0.70;97.00
76537;DHT22;65381;51.254;15.592;2023-11-22T00:36:44;-0.80;97.00
76537;DHT22;65381;51.254;15.592;2023-11-22T00:39:13;-0.80;97.00
76537;DHT22;65381;51.254;15.592;2023-11-22T00:41:41;-0.90;97.00
76537;DHT22;65381;51.254;15.592;2023-11-22T00:44:10;-0.90;97.10
76537;DHT22;65381;51.254;15.592;2023-11-22T00:46:38;-0.90;97.10
76537;DHT22;65381;51.254;15.592;2023-11-22T00:49:06;-0.80;97.30
76537;DHT22;65381;51.254;15.592;2023-11-22T00:51:35;-0.80;97.40
76537;DHT22;65381;51.254;15.592;2023-11-22T00:54:04;-0.70;97.40
76537;DHT22;65381;51.254;15.592;2023-11-22T00:56:32;-0.70;97.20
76537;DHT22;65381;51.254;15.592;2023-11-22T00:59:01;-0.70;97.20
76537;DHT22;65381;51.254;15.592;2023-11-22T01:01:31;-0.70;97.20
76537;DHT22;65381;51.254;15.592;2023-11-22T01:03:59;-0.70;97.20
76537;DHT22;65381;51.254;15.592;2023-11-22T01:06:28;-0.70;97.20
76537;DHT22;65381;51.254;15.592;2023-11-22T01:08:56;-0.70;97.30
76537;DHT22;65381;51.254;15.592;2023-11-22T01:11:24;-0.70;97.40
76537;DHT22;65381;51.254;15.592;2023-11-22T01:13:53;-0.70;97.10
76537;DHT22;65381;51.254;15.592;2023-11-22T01:16:21;-0.70;97.10
76537;DHT22;65381;51.254;15.592;2023-11-22T01:18:49;-0.70;97.10
76537;DHT22;65381;51.254;15.592;2023-11-22T01:21:18;-0.70;97.10
76537;DHT22;65381;51.254;15.592;2023-11-22T01:23:47;-0.70;97.10
76537;DHT22;65381;51.254;15.592;2023-11-22T01:26:15;-0.70;97.10
76537;DHT22;65381;51.254;15.592;2023-11-22T01:28:45;-0.70;97.10
76537;DHT22;65381;51.254;15.592;2023-11-22T01:31:13;-0.70;97.20
76537;DHT22;65381;51.254;15.592;2023-11-22T01:33:41;-0.70;97.20
76537;DHT22;65381;51.254;15.592;2023-11-22T01:36:09;-0.70;97.30
76537;DHT22;65381;51.254;15.592;2023-11-22T01:38:37;-0.70;97.20
76537;DHT22;65381;51.254;15.592;2023-11-22T01:41:07;-0.70;97.20
76537;DHT22;65381;51.254;15.592;2023-11-22T01:43:35;-0.70;97.20
76537;DHT22;65381;51.254;15.592;2023-11-22T01:46:04;-0.70;97.10
76537;DHT22;65381;51.254;15.592;2023-11-22T01:48:35;-0.70;97.00
76537;DHT22;65381;51.254;15.592;2023-11-22T01:51:04;-0.70;97.00
76537;DHT22;65381;51.254;15.592;2023-11-22T01:53:33;-0.80;96.90
76537;DHT22;65381;51.254;15.592;2023-11-22T01:56:01;-0.70;97.00
76537;DHT22;65381;51.254;15.592;2023-11-22T01:58:30;-0.80;97.10
76537;DHT22;65381;51.254;15.592;2023-11-22T02:00:59;-0.70;97.10
76537;DHT22;65381;51.254;15.592;2023-11-22T02:03:28;-0.90;96.90
76537;DHT22;65381;51.254;15.592;2023-11-22T02:05:58;-0.90;97.00
76537;DHT22;65381;51.254;15.592;2023-11-22T02:08:28;-0.90;97.00
76537;DHT22;65381;51.254;15.592;2023-11-22T02:11:01;-0.90;97.10
76537;DHT22;65381;51.254;15.592;2023-11-22T02:13:32;-0.90;97.10
76537;DHT22;65381;51.254;15.592;2023-11-22T02:16:01;-0.90;97.20
76537;DHT22;65381;51.254;15.592;2023-11-22T02:18:30;-0.80;97.30
76537;DHT22;65381;51.254;15.592;2023-11-22T02:20:58;-0.80;97.30
76537;DHT22;65381;51.254;15.592;2023-11-22T02:23:26;-0.80;97.20
76537;DHT22;65381;51.254;15.592;2023-11-22T02:25:56;-0.80;97.20
76537;DHT22;65381;51.254;15.592;2023-11-22T02:28:25;-0.80;97.20
76537;DHT22;65381;51.254;15.592;2023-11-22T02:30:52;-0.70;97.20
76537;DHT22;65381;51.254;15.592;2023-11-22T02:33:22;-0.80;97.10
76537;DHT22;65381;51.254;15.592;2023-11-22T02:35:50;-0.80;97.10
76537;DHT22;65381;51.254;15.592;2023-11-22T02:38:19;-0.80;97.10
76537;DHT22;65381;51.254;15.592;2023-11-22T02:40:47;-0.80;97.10
76537;DHT22;65381;51.254;15.592;2023-11-22T02:43:17;-0.80;97.10
76537;DHT22;65381;51.254;15.592;2023-11-22T02:45:45;-0.80;97.00
76537;DHT22;65381;51.254;15.592;2023-11-22T02:48:13;-0.80;97.10
76537;DHT22;65381;51.254;15.592;2023-11-22T02:50:41;-0.80;97.10
76537;DHT22;65381;51.254;15.592;2023-11-22T02:53:11;-0.80;97.10
76537;DHT22;65381;51.254;15.592;2023-11-22T02:55:40;-0.80;97.00
76537;DHT22;65381;51.254;15.592;2023-11-22T02:58:08;-0.70;97.10
76537;DHT22;65381;51.254;15.592;2023-11-22T03:00:36;-0.70;97.00
76537;DHT22;65381;51.254;15.592;2023-11-22T03:03:05;-0.70;97.00
76537;DHT22;65381;51.254;15.592;2023-11-22T03:05:38;-0.70;96.90
76537;DHT22;65381;51.254;15.592;2023-11-22T03:08:06;-0.80;96.80
76537;DHT22;65381;51.254;15.592;2023-11-22T03:10:35;-0.80;96.80
76537;DHT22;65381;51.254;15.592;2023-11-22T03:13:04;-0.90;96.80
76537;DHT22;65381;51.254;15.592;2023-11-22T03:15:32;-0.90;96.60
76537;DHT22;65381;51.254;15.592;2023-11-22T03:18:01;-1.00;96.70
76537;DHT22;65381;51.254;15.592;2023-11-22T03:20:29;-1.00;96.70
76537;DHT22;65381;51.254;15.592;2023-11-22T03:22:59;-1.00;96.70
76537;DHT22;65381;51.254;15.592;2023-11-22T03:25:29;-1.00;96.80
76537;DHT22;65381;51.254;15.592;2023-11-22T03:27:58;-1.00;96.90
76537;DHT22;65381;51.254;15.592;2023-11-22T03:30:25;-1.10;96.70
76537;DHT22;65381;51.254;15.592;2023-11-22T03:32:54;-1.10;96.90
76537;DHT22;65381;51.254;15.592;2023-11-22T03:35:23;-1.10;97.00
76537;DHT22;65381;51.254;15.592;2023-11-22T03:37:51;-1.10;96.90
76537;DHT22;65381;51.254;15.592;2023-11-22T03:40:19;-1.10;96.80
76537;DHT22;65381;51.254;15.592;2023-11-22T03:42:48;-1.10;96.90
76537;DHT22;65381;51.254;15.592;2023-11-22T03:45:16;-1.10;96.90
76537;DHT22;65381;51.254;15.592;2023-11-22T03:47:44;-1.10;96.80
76537;DHT22;65381;51.254;15.592;2023-11-22T03:50:12;-1.10;97.00
76537;DHT22;65381;51.254;15.592;2023-11-22T03:52:40;-1.10;97.00
76537;DHT22;65381;51.254;15.592;2023-11-22T03:55:08;-1.10;97.10
76537;DHT22;65381;51.254;15.592;2023-11-22T03:57:37;-1.10;97.10
76537;DHT22;65381;51.254;15.592;2023-11-22T04:00:05;-1.10;96.90
76537;DHT22;65381;51.254;15.592;2023-11-22T04:02:38;-1.10;96.90
76537;DHT22;65381;51.254;15.592;2023-11-22T04:05:09;-1.10;97.00
76537;DHT22;65381;51.254;15.592;2023-11-22T04:07:39;-1.20;97.00
76537;DHT22;65381;51.254;15.592;2023-11-22T04:10:07;-1.20;97.00
76537;DHT22;65381;51.254;15.592;2023-11-22T04:12:36;-1.20;97.00
76537;DHT22;65381;51.254;15.592;2023-11-22T04:15:05;-1.20;96.90
76537;DHT22;65381;51.254;15.592;2023-11-22T04:17:38;-1.30;96.90
76537;DHT22;65381;51.254;15.592;2023-11-22T04:20:07;-1.30;97.10
76537;DHT22;65381;51.254;15.592;2023-11-22T04:22:37;-1.20;97.10
76537;DHT22;65381;51.254;15.592;2023-11-22T04:25:06;-1.30;97.00
76537;DHT22;65381;51.254;15.592;2023-11-22T04:27:36;-1.20;97.00
76537;DHT22;65381;51.254;15.592;2023-11-22T04:30:06;-1.30;96.90
76537;DHT22;65381;51.254;15.592;2023-11-22T04:32:36;-1.30;96.80
76537;DHT22;65381;51.254;15.592;2023-11-22T04:35:05;-1.30;97.00
76537;DHT22;65381;51.254;15.592;2023-11-22T04:37:33;-1.30;96.90
76537;DHT22;65381;51.254;15.592;2023-11-22T04:40:02;-1.30;96.80
76537;DHT22;65381;51.254;15.592;2023-11-22T04:42:32;-1.30;96.80
76537;DHT22;65381;51.254;15.592;2023-11-22T04:45:00;-1.30;96.90
76537;DHT22;65381;51.254;15.592;2023-11-22T04:47:28;-1.30;97.00
76537;DHT22;65381;51.254;15.592;2023-11-22T04:49:56;-1.30;96.90
76537;DHT22;65381;51.254;15.592;2023-11-22T04:52:24;-1.40;96.80
76537;DHT22;65381;51.254;15.592;2023-11-22T04:54:52;-1.40;96.90
76537;DHT22;65381;51.254;15.592;2023-11-22T04:57:20;-1.40;97.00
76537;DHT22;65381;51.254;15.592;2023-11-22T04:59:49;-1.40;96.90
76537;DHT22;65381;51.254;15.592;2023-11-22T05:02:18;-1.30;97.00
76537;DHT22;65381;51.254;15.592;2023-11-22T05:04:46;-1.30;97.10
76537;DHT22;65381;51.254;15.592;2023-11-22T05:07:20;-1.30;97.00
76537;DHT22;65381;51.254;15.592;2023-11-22T05:09:48;-1.30;96.80
76537;DHT22;65381;51.254;15.592;2023-11-22T05:12:16;-1.40;96.80
76537;DHT22;65381;51.254;15.592;2023-11-22T05:14:44;-1.40;96.80
76537;DHT22;65381;51.254;15.592;2023-11-22T05:17:13;-1.50;96.80
76537;DHT22;65381;51.254;15.592;2023-11-22T05:19:41;-1.50;96.80
76537;DHT22;65381;51.254;15.592;2023-11-22T05:22:09;-1.50;96.80
76537;DHT22;65381;51.254;15.592;2023-11-22T05:24:37;-1.50;96.80
76537;DHT22;65381;51.254;15.592;2023-11-22T05:27:09;-1.50;96.90
76537;DHT22;65381;51.254;15.592;2023-11-22T05:29:38;-1.50;96.80
76537;DHT22;65381;51.254;15.592;2023-11-22T05:32:16;-1.40;97.00
76537;DHT22;65381;51.254;15.592;2023-11-22T05:34:45;-1.50;96.90
76537;DHT22;65381;51.254;15.592;2023-11-22T05:37:13;-1.50;96.80
76537;DHT22;65381;51.254;15.592;2023-11-22T05:39:41;-1.50;96.80
76537;DHT22;65381;51.254;15.592;2023-11-22T05:42:10;-1.50;96.60
76537;DHT22;65381;51.254;15.592;2023-11-22T05:44:39;-1.50;96.60
76537;DHT22;65381;51.254;15.592;2023-11-22T05:47:07;-1.50;96.60
76537;DHT22;65381;51.254;15.592;2023-11-22T05:49:36;-1.50;96.70
76537;DHT22;65381;51.254;15.592;2023-11-22T05:52:04;-1.60;96.60
76537;DHT22;65381;51.254;15.592;2023-11-22T05:54:32;-1.50;96.70
76537;DHT22;65381;51.254;15.592;2023-11-22T05:57:00;-1.50;96.80
76537;DHT22;65381;51.254;15.592;2023-11-22T05:59:29;-1.50;96.80
76537;DHT22;65381;51.254;15.592;2023-11-22T06:01:57;-1.50;96.90
76537;DHT22;65381;51.254;15.592;2023-11-22T06:04:25;-1.50;96.70
76537;DHT22;65381;51.254;15.592;2023-11-22T06:06:53;-1.60;96.60
76537;DHT22;65381;51.254;15.592;2023-11-22T06:09:22;-1.60;96.50
76537;DHT22;65381;51.254;15.592;2023-11-22T06:11:50;-1.60;96.50
76537;DHT22;65381;51.254;15.592;2023-11-22T06:14:19;-1.60;96.60
76537;DHT22;65381;51.254;15.592;2023-11-22T06:16:47;-1.70;96.60
76537;DHT22;65381;51.254;15.592;2023-11-22T06:19:16;-1.70;96.70
76537;DHT22;65381;51.254;15.592;2023-11-22T06:21:44;-1.70;96.70
76537;DHT22;65381;51.254;15.592;2023-11-22T06:24:13;-1.70;96.70
76537;DHT22;65381;51.254;15.592;2023-11-22T06:26:44;-1.70;96.60
76537;DHT22;65381;51.254;15.592;2023-11-22T06:29:14;-1.80;96.50
76537;DHT22;65381;51.254;15.592;2023-11-22T06:31:42;-1.80;96.50
76537;DHT22;65381;51.254;15.592;2023-11-22T06:34:11;-1.80;96.70
76537;DHT22;65381;51.254;15.592;2023-11-22T06:36:40;-1.80;96.80
76537;DHT22;65381;51.254;15.592;2023-11-22T06:39:08;-1.80;96.70
76537;DHT22;65381;51.254;15.592;2023-11-22T06:41:37;-1.80;96.70
76537;DHT22;65381;51.254;15.592;2023-11-22T06:44:06;-1.80;96.80
76537;DHT22;65381;51.254;15.592;2023-11-22T06:46:34;-1.70;96.90
76537;DHT22;65381;51.254;15.592;2023-11-22T06:49:02;-1.70;96.90
76537;DHT22;65381;51.254;15.592;2023-11-22T06:51:30;-1.70;96.90
76537;DHT22;65381;51.254;15.592;2023-11-22T06:53:59;-1.70;96.80
76537;DHT22;65381;51.254;15.592;2023-11-22T06:56:29;-1.70;96.90
76537;DHT22;65381;51.254;15.592;2023-11-22T06:58:57;-1.70;96.80
76537;DHT22;65381;51.254;15.592;2023-11-22T07:01:25;-1.70;96.60
76537;DHT22;65381;51.254;15.592;2023-11-22T07:03:54;-1.80;96.40
76537;DHT22;65381;51.254;15.592;2023-11-22T07:06:23;-1.80;96.50
76537;DHT22;65381;51.254;15.592;2023-11-22T07:08:51;-1.90;96.50
76537;DHT22;65381;51.254;15.592;2023-11-22T07:11:24;-1.90;96.50
76537;DHT22;65381;51.254;15.592;2023-11-22T07:13:53;-1.90;96.40
76537;DHT22;65381;51.254;15.592;2023-11-22T07:16:21;-2.00;96.50
76537;DHT22;65381;51.254;15.592;2023-11-22T07:18:50;-1.90;96.60
76537;DHT22;65381;51.254;15.592;2023-11-22T07:21:18;-1.90;96.80
76537;DHT22;65381;51.254;15.592;2023-11-22T07:23:47;-1.90;96.70
76537;DHT22;65381;51.254;15.592;2023-11-22T07:26:18;-1.90;96.70
76537;DHT22;65381;51.254;15.592;2023-11-22T07:28:47;-1.90;96.60
76537;DHT22;65381;51.254;15.592;2023-11-22T07:31:15;-1.90;96.80
76537;DHT22;65381;51.254;15.592;2023-11-22T07:33:45;-1.90;96.70
76537;DHT22;65381;51.254;15.592;2023-11-22T07:36:14;-1.80;96.80
76537;DHT22;65381;51.254;15.592;2023-11-22T07:38:43;-1.80;96.80
76537;DHT22;65381;51.254;15.592;2023-11-22T07:41:11;-1.80;96.40
76537;DHT22;65381;51.254;15.592;2023-11-22T07:43:40;-1.90;96.10
76537;DHT22;65381;51.254;15.592;2023-11-22T07:46:08;-2.00;96.10
76537;DHT22;65381;51.254;15.592;2023-11-22T07:48:44;-2.10;96.00
76537;DHT22;65381;51.254;15.592;2023-11-22T07:51:15;-2.10;95.80
76537;DHT22;65381;51.254;15.592;2023-11-22T07:53:46;-2.20;95.80
76537;DHT22;65381;51.254;15.592;2023-11-22T07:56:14;-2.30;95.90
76537;DHT22;65381;51.254;15.592;2023-11-22T07:58:46;-2.30;96.30
76537;DHT22;65381;51.254;15.592;2023-11-22T08:01:14;-2.30;96.50
76537;DHT22;65381;51.254;15.592;2023-11-22T08:03:43;-2.30;96.70
76537;DHT22;65381;51.254;15.592;2023-11-22T08:06:16;-2.20;96.70
76537;DHT22;65381;51.254;15.592;2023-11-22T08:08:45;-2.20;97.00
76537;DHT22;65381;51.254;15.592;2023-11-22T08:11:14;-2.10;96.90
76537;DHT22;65381;51.254;15.592;2023-11-22T08:13:49;-2.10;96.70
76537;DHT22;65381;51.254;15.592;2023-11-22T08:16:17;-2.10;96.70
76537;DHT22;65381;51.254;15.592;2023-11-22T08:18:48;-2.10;96.80
76537;DHT22;65381;51.254;15.592;2023-11-22T08:21:16;-2.10;96.90
76537;DHT22;65381;51.254;15.592;2023-11-22T08:23:48;-2.10;96.90
76537;DHT22;65381;51.254;15.592;2023-11-22T08:26:16;-2.10;96.70
76537;DHT22;65381;51.254;15.592;2023-11-22T08:28:45;-2.10;96.60
76537;DHT22;65381;51.254;15.592;2023-11-22T08:31:13;-2.10;96.70
76537;DHT22;65381;51.254;15.592;2023-11-22T08:33:41;-2.10;96.70
76537;DHT22;65381;51.254;15.592;2023-11-22T08:36:09;-2.00;97.00
76537;DHT22;65381;51.254;15.592;2023-11-22T08:38:38;-1.90;97.10
76537;DHT22;65381;51.254;15.592;2023-11-22T08:41:11;-1.80;97.10
76537;DHT22;65381;51.254;15.592;2023-11-22T08:43:42;-1.80;97.10
76537;DHT22;65381;51.254;15.592;2023-11-22T08:46:10;-1.70;97.20
76537;DHT22;65381;51.254;15.592;2023-11-22T08:48:41;-1.60;97.30
76537;DHT22;65381;51.254;15.592;2023-11-22T08:51:10;-1.50;97.20
76537;DHT22;65381;51.254;15.592;2023-11-22T08:53:39;-1.50;97.10
76537;DHT22;65381;51.254;15.592;2023-11-22T08:56:08;-1.50;97.00
76537;DHT22;65381;51.254;15.592;2023-11-22T08:58:39;-1.50;96.80
76537;DHT22;65381;51.254;15.592;2023-11-22T09:01:07;-1.50;96.50
76537;DHT22;65381;51.254;15.592;2023-11-22T09:03:36;-1.50;96.80
76537;DHT22;65381;51.254;15.592;2023-11-22T09:06:06;-1.40;96.70
76537;DHT22;65381;51.254;15.592;2023-11-22T09:08:35;-1.50;96.30
76537;DHT22;65381;51.254;15.592;2023-11-22T09:11:03;-1.50;96.50
76537;DHT22;65381;51.254;15.592;2023-11-22T09:13:35;-1.50;96.50
76537;DHT22;65381;51.254;15.592;2023-11-22T09:16:03;-1.50;96.60
76537;DHT22;65381;51.254;15.592;2023-11-22T09:18:35;-1.50;96.60
76537;DHT22;65381;51.254;15.592;2023-11-22T09:21:05;-1.50;96.40
76537;DHT22;65381;51.254;15.592;2023-11-22T09:23:34;-1.50;96.60
76537;DHT22;65381;51.254;15.592;2023-11-22T09:26:03;-1.50;96.90
76537;DHT22;65381;51.254;15.592;2023-11-22T09:28:33;-1.40;96.90
76537;DHT22;65381;51.254;15.592;2023-11-22T09:31:01;-1.50;96.50
76537;DHT22;65381;51.254;15.592;2023-11-22T09:33:35;-1.50;96.50
76537;DHT22;65381;51.254;15.592;2023-11-22T09:36:03;-1.50;96.50
76537;DHT22;65381;51.254;15.592;2023-11-22T09:38:36;-1.40;96.70
76537;DHT22;65381;51.254;15.592;2023-11-22T09:41:05;-1.40;96.50
76537;DHT22;65381;51.254;15.592;2023-11-22T09:43:36;-1.50;96.40
76537;DHT22;65381;51.254;15.592;2023-11-22T09:46:04;-1.50;96.60
76537;DHT22;65381;51.254;15.592;2023-11-22T09:48:33;-1.30;97.10
76537;DHT22;65381;51.254;15.592;2023-11-22T09:51:04;-1.20;97.20
76537;DHT22;65381;51.254;15.592;2023-11-22T09:53:41;-1.10;97.30
76537;DHT22;65381;51.254;15.592;2023-11-22T09:56:12;-1.00;97.40
76537;DHT22;65381;51.254;15.592;2023-11-22T09:58:44;-0.90;97.40
76537;DHT22;65381;51.254;15.592;2023-11-22T10:01:12;-0.80;97.20
76537;DHT22;65381;51.254;15.592;2023-11-22T10:03:41;-0.70;97.00
76537;DHT22;65381;51.254;15.592;2023-11-22T10:06:09;-0.80;96.60
76537;DHT22;65381;51.254;15.592;2023-11-22T10:08:38;-0.90;96.30
76537;DHT22;65381;51.254;15.592;2023-11-22T10:11:06;-0.90;96.20
76537;DHT22;65381;51.254;15.592;2023-11-22T10:13:35;-0.90;96.40
76537;DHT22;65381;51.254;15.592;2023-11-22T10:16:13;-0.90;96.30
76537;DHT22;65381;51.254;15.592;2023-11-22T10:18:46;-0.90;96.50
76537;DHT22;65381;51.254;15.592;2023-11-22T10:21:22;-0.90;96.50
76537;DHT22;65381;51.254;15.592;2023-11-22T10:23:56;-0.90;96.30
76537;DHT22;65381;51.254;15.592;2023-11-22T10:26:26;-1.00;95.90
76537;DHT22;65381;51.254;15.592;2023-11-22T10:28:57;-1.00;95.70
76537;DHT22;65381;51.254;15.592;2023-11-22T10:31:25;-1.10;95.50
76537;DHT22;65381;51.254;15.592;2023-11-22T10:33:54;-1.10;96.10
76537;DHT22;65381;51.254;15.592;2023-11-22T10:36:26;-1.10;96.80
76537;DHT22;65381;51.254;15.592;2023-11-22T10:38:54;-0.90;97.30
76537;DHT22;65381;51.254;15.592;2023-11-22T10:41:22;-0.70;97.50
76537;DHT22;65381;51.254;15.592;2023-11-22T10:43:54;-0.50;97.50
76537;DHT22;65381;51.254;15.592;2023-11-22T10:46:28;-0.50;96.80
76537;DHT22;65381;51.254;15.592;2023-11-22T10:48:58;-0.40;96.80
76537;DHT22;65381;51.254;15.592;2023-11-22T10:51:31;-0.40;96.40
76537;DHT22;65381;51.254;15.592;2023-11-22T10:54:01;-0.40;96.10
76537;DHT22;65381;51.254;15.592;2023-11-22T10:56:37;-0.50;95.90
76537;DHT22;65381;51.254;15.592;2023-11-22T10:59:13;-0.40;96.40
76537;DHT22;65381;51.254;15.592;2023-11-22T11:01:47;-0.40;96.40
76537;DHT22;65381;51.254;15.592;2023-11-22T11:04:33;-0.50;95.80
76537;DHT22;65381;51.254;15.592;2023-11-22T11:07:03;-0.60;95.00
76537;DHT22;65381;51.254;15.592;2023-11-22T11:09:34;-0.70;95.20
76537;DHT22;65381;51.254;15.592;2023-11-22T11:12:03;-0.70;95.80
76537;DHT22;65381;51.254;15.592;2023-11-22T11:14:35;-0.70;96.20
76537;DHT22;65381;51.254;15.592;2023-11-22T11:17:05;-0.70;96.50
76537;DHT22;65381;51.254;15.592;2023-11-22T11:19:33;-0.40;97.30
76537;DHT22;65381;51.254;15.592;2023-11-22T11:22:02;-0.20;97.50
76537;DHT22;65381;51.254;15.592;2023-11-22T11:24:39;-0.10;97.60
76537;DHT22;65381;51.254;15.592;2023-11-22T11:27:09;0.00;97.50
76537;DHT22;65381;51.254;15.592;2023-11-22T11:29:37;0.20;97.40
76537;DHT22;65381;51.254;15.592;2023-11-22T11:32:31;0.30;97.10
76537;DHT22;65381;51.254;15.592;2023-11-22T11:35:07;0.20;96.20
76537;DHT22;65381;51.254;15.592;2023-11-22T11:37:37;0.10;95.70
76537;DHT22;65381;51.254;15.592;2023-11-22T11:40:25;0.00;95.20
76537;DHT22;65381;51.254;15.592;2023-11-22T11:42:54;-0.10;94.90
76537;DHT22;65381;51.254;15.592;2023-11-22T11:45:23;-0.30;94.50
76537;DHT22;65381;51.254;15.592;2023-11-22T11:47:51;-0.50;94.90
76537;DHT22;65381;51.254;15.592;2023-11-22T11:50:22;-0.60;95.50
76537;DHT22;65381;51.254;15.592;2023-11-22T11:52:51;-0.60;95.90
76537;DHT22;65381;51.254;15.592;2023-11-22T11:55:20;-0.50;96.50
76537;DHT22;65381;51.254;15.592;2023-11-22T11:57:48;-0.30;97.20
76537;DHT22;65381;51.254;15.592;2023-11-22T12:00:16;-0.10;97.50
76537;DHT22;65381;51.254;15.592;2023-11-22T12:02:44;0.00;97.30
76537;DHT22;65381;51.254;15.592;2023-11-22T12:05:13;0.20;97.20
76537;DHT22;65381;51.254;15.592;2023-11-22T12:07:41;0.30;97.00
76537;DHT22;65381;51.254;15.592;2023-11-22T12:10:09;0.30;96.60
76537;DHT22;65381;51.254;15.592;2023-11-22T12:12:37;0.50;96.80
76537;DHT22;65381;51.254;15.592;2023-11-22T12:15:08;0.60;96.50
76537;DHT22;65381;51.254;15.592;2023-11-22T12:17:37;0.60;96.00
76537;DHT22;65381;51.254;15.592;2023-11-22T12:20:14;0.60;95.90
76537;DHT22;65381;51.254;15.592;2023-11-22T12:22:46;0.60;96.50
76537;DHT22;65381;51.254;15.592;2023-11-22T12:25:15;0.80;96.20
76537;DHT22;65381;51.254;15.592;2023-11-22T12:27:44;0.60;95.20
76537;DHT22;65381;51.254;15.592;2023-11-22T12:30:34;0.60;95.60
76537;DHT22;65381;51.254;15.592;2023-11-22T12:33:06;0.60;96.10
76537;DHT22;65381;51.254;15.592;2023-11-22T12:35:38;0.80;96.60
76537;DHT22;65381;51.254;15.592;2023-11-22T12:38:07;1.40;98.40
76537;DHT22;65381;51.254;15.592;2023-11-22T12:40:35;1.80;98.00
76537;DHT22;65381;51.254;15.592;2023-11-22T12:43:04;1.70;95.70
76537;DHT22;65381;51.254;15.592;2023-11-22T12:45:32;1.50;94.80
76537;DHT22;65381;51.254;15.592;2023-11-22T12:48:22;1.20;94.10
76537;DHT22;65381;51.254;15.592;2023-11-22T12:50:56;1.00;94.10
76537;DHT22;65381;51.254;15.592;2023-11-22T12:53:25;1.00;95.50
76537;DHT22;65381;51.254;15.592;2023-11-22T12:55:56;1.10;96.40
76537;DHT22;65381;51.254;15.592;2023-11-22T12:58:26;1.10;95.70
76537;DHT22;65381;51.254;15.592;2023-11-22T13:00:56;1.00;95.80
76537;DHT22;65381;51.254;15.592;2023-11-22T13:03:28;1.00;95.50
76537;DHT22;65381;51.254;15.592;2023-11-22T13:05:57;1.00;95.40
76537;DHT22;65381;51.254;15.592;2023-11-22T13:08:25;0.80;95.10
76537;DHT22;65381;51.254;15.592;2023-11-22T13:10:58;0.80;95.20
76537;DHT22;65381;51.254;15.592;2023-11-22T13:13:26;1.00;97.30
76537;DHT22;65381;51.254;15.592;2023-11-22T13:15:55;2.10;99.50
76537;DHT22;65381;51.254;15.592;2023-11-22T13:18:25;2.50;99.10
76537;DHT22;65381;51.254;15.592;2023-11-22T13:20:54;2.30;95.80
76537;DHT22;65381;51.254;15.592;2023-11-22T13:23:22;1.60;92.10
76537;DHT22;65381;51.254;15.592;2023-11-22T13:25:50;1.00;92.20
76537;DHT22;65381;51.254;15.592;2023-11-22T13:28:18;0.70;93.50
76537;DHT22;65381;51.254;15.592;2023-11-22T13:30:46;0.60;94.20
76537;DHT22;65381;51.254;15.592;2023-11-22T13:33:16;0.40;94.70
76537;DHT22;65381;51.254;15.592;2023-11-22T13:35:44;0.30;94.40
76537;DHT22;65381;51.254;15.592;2023-11-22T13:38:15;0.00;94.40
76537;DHT22;65381;51.254;15.592;2023-11-22T13:40:44;0.00;95.50
76537;DHT22;65381;51.254;15.592;2023-11-22T13:43:13;0.00;96.20
76537;DHT22;65381;51.254;15.592;2023-11-22T13:45:42;0.00;95.80
76537;DHT22;65381;51.254;15.592;2023-11-22T13:48:09;-0.10;95.40
76537;DHT22;65381;51.254;15.592;2023-11-22T13:50:40;-0.20;95.40
76537;DHT22;65381;51.254;15.592;2023-11-22T13:53:08;-0.40;94.90
76537;DHT22;65381;51.254;15.592;2023-11-22T13:55:39;-0.50;95.40
76537;DHT22;65381;51.254;15.592;2023-11-22T13:58:07;-0.60;95.50
76537;DHT22;65381;51.254;15.592;2023-11-22T14:00:36;-0.70;95.80
76537;DHT22;65381;51.254;15.592;2023-11-22T14:03:06;-0.70;95.90
76537;DHT22;65381;51.254;15.592;2023-11-22T14:05:37;-0.70;96.10
76537;DHT22;65381;51.254;15.592;2023-11-22T14:08:06;-0.80;96.20
76537;DHT22;65381;51.254;15.592;2023-11-22T14:10:35;-0.80;96.20
76537;DHT22;65381;51.254;15.592;2023-11-22T14:13:03;-0.90;95.90
76537;DHT22;65381;51.254;15.592;2023-11-22T14:15:33;-1.10;95.60
76537;DHT22;65381;51.254;15.592;2023-11-22T14:18:01;-1.10;95.50
76537;DHT22;65381;51.254;15.592;2023-11-22T14:20:29;-1.30;95.30
76537;DHT22;65381;51.254;15.592;2023-11-22T14:22:57;-1.40;95.60
76537;DHT22;65381;51.254;15.592;2023-11-22T14:25:25;-1.40;95.90
76537;DHT22;65381;51.254;15.592;2023-11-22T14:27:54;-1.40;96.20
76537;DHT22;65381;51.254;15.592;2023-11-22T14:30:24;-1.30;96.40
76537;DHT22;65381;51.254;15.592;2023-11-22T14:32:54;-1.30;96.40
76537;DHT22;65381;51.254;15.592;2023-11-22T14:35:23;-1.30;96.20
76537;DHT22;65381;51.254;15.592;2023-11-22T14:37:51;-1.40;96.00
76537;DHT22;65381;51.254;15.592;2023-11-22T14:40:20;-1.50;95.80
76537;DHT22;65381;51.254;15.592;2023-11-22T14:42:49;-1.50;95.60
76537;DHT22;65381;51.254;15.592;2023-11-22T14:45:20;-1.60;95.50
76537;DHT22;65381;51.254;15.592;2023-11-22T14:47:48;-1.80;95.20
76537;DHT22;65381;51.254;15.592;2023-11-22T14:50:20;-1.90;94.90
76537;DHT22;65381;51.254;15.592;2023-11-22T14:52:48;-2.10;94.80
76537;DHT22;65381;51.254;15.592;2023-11-22T14:55:18;-2.30;94.80
76537;DHT22;65381;51.254;15.592;2023-11-22T14:57:48;-2.40;94.90
76537;DHT22;65381;51.254;15.592;2023-11-22T15:00:18;-2.50;95.00
76537;DHT22;65381;51.254;15.592;2023-11-22T15:02:47;-2.60;95.00
76537;DHT22;65381;51.254;15.592;2023-11-22T15:05:20;-2.70;95.00
76537;DHT22;65381;51.254;15.592;2023-11-22T15:07:48;-2.80;94.80
76537;DHT22;65381;51.254;15.592;2023-11-22T15:10:23;-2.80;94.60
76537;DHT22;65381;51.254;15.592;2023-11-22T15:12:50;-3.00;94.60
76537;DHT22;65381;51.254;15.592;2023-11-22T15:15:19;-3.10;94.50
76537;DHT22;65381;51.254;15.592;2023-11-22T15:17:47;-3.10;94.50
76537;DHT22;65381;51.254;15.592;2023-11-22T15:20:15;-3.20;94.60
76537;DHT22;65381;51.254;15.592;2023-11-22T15:22:44;-3.20;94.70
76537;DHT22;65381;51.254;15.592;2023-11-22T15:25:12;-3.30;94.80
76537;DHT22;65381;51.254;15.592;2023-11-22T15:27:43;-3.40;94.90
76537;DHT22;65381;51.254;15.592;2023-11-22T15:30:12;-3.50;94.80
76537;DHT22;65381;51.254;15.592;2023-11-22T15:32:40;-3.50;94.90